Česky Dansk Deutsch English Español Suomi Français Magyar Italiano Nederlands norsk Polski Português svenska Türkçe

 

Het Weer

Maseru / Moshoeshoe (Lesotho)

14:00, 21 augustus 2016 (GMT)

NWNNE
WE
SWSSE
Home            
Maseru / Moshoeshoe Maseru-Mia Bloemfontein, Bloemfontein Airport Bethlehem Airport Aliwal North Welkom Ladysmith Umtata Frankfort Pietermaritzburg Kimberley, Kim-Apt Queenstown Greytown Klerksdorp Newcastle Port St Johns Margate Potchefstroom Vereeniging Standerton Middelburg Durban, Durban International Airport Durban/Virginia

Om een weerknop op uw website of weblog te plaatsen, copieer onderstaande code en plak die in uw pagina. In het eerste vakje staat HTML-code, in het tweede vakje UBB-code.


Add to Google

Details

Wind speed:2 bf, 5 kn, 2.6 m/s, 5.8 miles/h, 9.3 km/h
Wind direction:W, 270°
Visibility:Greater than 10000 m, 10 km, 32800 ft, 6.2 miles
Clouds:CAVOC
Temperature:17°C, 63°F
Dew-point:1°C, 34°F
Atmospheric pressure:1021 hPa, 765.8 mmHg, 30.15 inHg, 1.008 atm
Relative humidity:33.9 %
METAR:FXMM 211400Z 27005KT CAVOK 17/01 Q1021 NOSIG

Snelkoppelingen

Actuele weersinformatie van de hele wereld. Voeg locaties toe met het plus (+) symbool. Deze snelkoppelingen kunnen worden toegevoegd aan Google.

Lid van de Technetium groep

website free tracking
StatCounter NetStat W3C Validator

20-10-2018 12:43:43
astro.technetium.be money.technetium.be phote.technetium.be tafeltennistafel.technetium.be www.ligfiets.net